Time;durP1;ratioP1;P1;durP2;ratioP2;P2;SDS_P1;SDS_P2;PMS_P1;PMS_P2;Temp;Humidity;BMP_temperature;BMP_pressure;BME280_temperature;BME280_humidity;BME280_pressure;Samples;Min_cycle;Max_cycle;Signal;HPM_P1;HPM_P2
2022/05/06 00:01:34;;;;;;;34.35;19.13;;;7.90;99.90;;;;;;5110508;28;20046;-87
2022/05/06 00:04:00;;;;;;;47.75;23.40;;;7.80;99.90;;;;;;5092285;28;20291;-87
2022/05/06 00:06:29;;;;;;;42.33;23.08;;;7.80;99.90;;;;;;5093604;28;20051;-87
2022/05/06 00:08:56;;;;;;;43.85;22.50;;;7.80;99.90;;;;;;5093539;28;20050;-87
2022/05/06 00:11:22;;;;;;;30.58;18.98;;;7.80;99.90;;;;;;5075696;28;20052;-87
2022/05/06 00:13:48;;;;;;;26.45;17.08;;;7.80;99.90;;;;;;5096684;28;20043;-87
2022/05/06 00:16:15;;;;;;;26.77;17.15;;;7.70;99.90;;;;;;5112445;28;20157;-86
2022/05/06 00:18:41;;;;;;;39.63;23.10;;;7.70;99.90;;;;;;5112968;28;20053;-87
2022/05/06 00:21:06;;;;;;;45.40;25.58;;;7.80;99.90;;;;;;5114872;28;20406;-87
2022/05/06 00:23:32;;;;;;;48.92;26.67;;;7.80;99.90;;;;;;5100952;28;20468;-88
2022/05/06 00:25:58;;;;;;;48.10;28.20;;;7.90;99.90;;;;;;5093534;28;20040;-88
2022/05/06 00:28:24;;;;;;;45.08;28.67;;;7.90;99.90;;;;;;5095737;28;20039;-87
2022/05/06 00:30:50;;;;;;;47.38;28.58;;;7.90;99.90;;;;;;5113448;28;20530;-87
2022/05/06 00:33:15;;;;;;;40.63;23.45;;;8.00;99.90;;;;;;5103014;28;20101;-87
2022/05/06 00:35:41;;;;;;;41.80;23.08;;;8.00;99.90;;;;;;5094123;28;20066;-87
2022/05/06 00:38:07;;;;;;;51.78;27.42;;;8.00;99.90;;;;;;5092879;28;20093;-87
2022/05/06 00:40:33;;;;;;;44.90;26.10;;;8.00;99.90;;;;;;5075152;28;20036;-87
2022/05/06 00:42:59;;;;;;;41.50;25.27;;;8.00;99.90;;;;;;5094450;28;20040;-87
2022/05/06 00:45:36;;;;;;;33.28;22.00;;;8.00;99.90;;;;;;5113229;28;20051;-87
2022/05/06 00:48:02;;;;;;;38.45;23.38;;;8.00;99.90;;;;;;5106368;28;20057;-87
2022/05/06 00:50:28;;;;;;;34.50;21.23;;;8.00;99.90;;;;;;5094006;28;20116;-87
2022/05/06 00:52:54;;;;;;;39.70;23.67;;;8.00;99.90;;;;;;5092394;28;20455;-87
2022/05/06 00:55:23;;;;;;;28.95;18.27;;;8.00;99.90;;;;;;5092841;28;20056;-87
2022/05/06 00:57:48;;;;;;;38.95;21.48;;;8.00;99.90;;;;;;5093630;28;20055;-87
2022/05/06 01:00:19;;;;;;;33.67;19.80;;;8.00;99.90;;;;;;5101326;28;20044;-87
2022/05/06 01:02:48;;;;;;;36.78;21.58;;;8.00;99.90;;;;;;5091851;28;20127;-87
2022/05/06 01:05:14;;;;;;;53.67;22.33;;;7.90;99.90;;;;;;5093845;28;20475;-86
2022/05/06 01:07:43;;;;;;;36.10;23.17;;;7.90;99.90;;;;;;5092401;28;20054;-86
2022/05/06 01:10:09;;;;;;;40.70;23.52;;;7.90;99.90;;;;;;5092424;28;20082;-87
2022/05/06 01:12:35;;;;;;;45.38;27.23;;;7.90;99.90;;;;;;5095100;28;20083;-86
2022/05/06 01:15:01;;;;;;;45.97;25.15;;;7.80;99.90;;;;;;5093024;28;20067;-86
2022/05/06 01:17:27;;;;;;;36.97;23.70;;;7.90;99.90;;;;;;5092598;28;20047;-86
2022/05/06 01:19:52;;;;;;;36.33;24.10;;;7.80;99.90;;;;;;5100608;28;20394;-86
2022/05/06 01:22:18;;;;;;;45.65;24.77;;;7.80;99.90;;;;;;5113203;28;20051;-87
2022/05/06 01:24:44;;;;;;;36.45;22.33;;;7.80;99.90;;;;;;5097685;28;20044;-86
2022/05/06 01:27:17;;;;;;;39.83;24.02;;;7.80;99.90;;;;;;5092535;28;20222;-86
2022/05/06 01:29:45;;;;;;;43.70;26.13;;;7.70;99.90;;;;;;5111471;28;20192;-86
2022/05/06 01:32:11;;;;;;;43.83;25.85;;;7.70;99.90;;;;;;5106930;28;20529;-86
2022/05/06 01:34:40;;;;;;;61.20;29.83;;;7.70;99.90;;;;;;5103528;28;20040;-86
2022/05/06 01:37:08;;;;;;;56.65;25.70;;;7.70;99.90;;;;;;5110837;28;20051;-86
2022/05/06 01:39:36;;;;;;;36.33;24.33;;;7.60;99.90;;;;;;5112626;28;20044;-86
2022/05/06 01:42:08;;;;;;;36.35;22.48;;;7.60;99.90;;;;;;5096609;28;20048;-87
2022/05/06 01:44:43;;;;;;;41.72;21.20;;;7.50;99.90;;;;;;5093290;28;20054;-87
2022/05/06 01:47:16;;;;;;;33.03;20.20;;;7.50;99.90;;;;;;5092957;28;20040;-86
2022/05/06 01:49:43;;;;;;;36.90;22.83;;;7.40;99.90;;;;;;5080693;28;20121;-86
2022/05/06 01:52:16;;;;;;;41.72;25.73;;;7.30;99.90;;;;;;5097471;28;20050;-86
2022/05/06 01:54:42;;;;;;;41.85;26.20;;;7.40;99.90;;;;;;5093196;28;20063;-87
2022/05/06 01:57:08;;;;;;;36.63;22.90;;;7.40;99.90;;;;;;5090743;28;20052;-87
2022/05/06 01:59:34;;;;;;;36.42;21.55;;;7.40;99.90;;;;;;5093283;28;20501;-86
2022/05/06 02:02:00;;;;;;;42.53;25.55;;;7.40;99.90;;;;;;5091602;28;20052;-86
2022/05/06 02:07:10;;;;;;;40.03;25.67;;;7.30;99.90;;;;;;5097797;28;20052;-86
2022/05/06 02:09:36;;;;;;;35.85;20.73;;;7.30;99.90;;;;;;5092737;28;20032;-86
2022/05/06 02:12:02;;;;;;;31.40;20.10;;;7.30;99.90;;;;;;5092515;28;20044;-86
2022/05/06 02:14:28;;;;;;;29.35;20.20;;;7.40;99.90;;;;;;5091682;28;20036;-86
2022/05/06 02:16:54;;;;;;;39.22;22.58;;;7.40;99.90;;;;;;5093064;28;20047;-87
2022/05/06 02:19:20;;;;;;;42.03;22.92;;;7.40;99.90;;;;;;5095303;28;20206;-86
2022/05/06 02:21:45;;;;;;;151.82;32.92;;;7.40;99.90;;;;;;5104640;28;20051;-86
2022/05/06 02:24:12;;;;;;;64.28;28.27;;;7.40;99.90;;;;;;5110188;28;20044;-86
2022/05/06 02:26:38;;;;;;;218.20;36.00;;;7.40;99.90;;;;;;5094529;28;20043;-86
2022/05/06 02:29:04;;;;;;;638.42;58.00;;;7.30;99.90;;;;;;5095105;28;20505;-86
2022/05/06 02:34:18;;;;;;;695.33;56.85;;;7.30;99.90;;;;;;5096471;28;20091;-86
2022/05/06 02:36:45;;;;;;;986.88;75.97;;;7.30;99.90;;;;;;5109366;28;20075;-86
2022/05/06 02:39:11;;;;;;;803.50;58.90;;;7.30;99.90;;;;;;5101184;28;20044;-87
2022/05/06 02:41:36;;;;;;;1030.68;83.22;;;7.30;99.90;;;;;;5096267;28;20040;-87
2022/05/06 02:44:04;;;;;;;537.88;56.47;;;7.30;99.90;;;;;;5094859;28;20040;-87
2022/05/06 02:46:36;;;;;;;228.23;43.03;;;7.30;99.90;;;;;;5094357;28;20123;-87
2022/05/06 02:49:03;;;;;;;106.40;42.45;;;7.40;99.90;;;;;;5094872;28;20562;-87
2022/05/06 02:51:29;;;;;;;205.27;44.15;;;7.40;99.90;;;;;;5104451;28;20047;-86
2022/05/06 02:53:57;;;;;;;339.52;48.10;;;7.40;99.90;;;;;;5095017;28;20056;-86
2022/05/06 02:56:24;;;;;;;103.03;37.30;;;7.50;99.90;;;;;;5094805;28;20048;-87
2022/05/06 02:58:50;;;;;;;268.85;48.67;;;7.50;99.90;;;;;;5095084;28;20430;-86
2022/05/06 03:01:16;;;;;;;186.50;43.72;;;7.60;99.90;;;;;;5094929;28;20028;-86
2022/05/06 03:03:42;;;;;;;346.65;52.83;;;7.60;99.90;;;;;;5077796;28;20453;-87
2022/05/06 03:06:08;;;;;;;147.52;39.97;;;7.70;99.90;;;;;;5106451;28;20047;-87
2022/05/06 03:08:34;;;;;;;90.32;40.70;;;7.70;99.90;;;;;;5114068;28;20047;-87
2022/05/06 03:11:00;;;;;;;138.45;44.85;;;7.70;99.90;;;;;;5099768;28;20150;-87
2022/05/06 03:13:26;;;;;;;658.67;66.88;;;7.80;99.90;;;;;;5094925;28;20063;-87
2022/05/06 03:15:52;;;;;;;679.42;70.60;;;7.80;99.90;;;;;;5095549;28;20047;-87
2022/05/06 03:18:18;;;;;;;334.30;52.53;;;7.90;99.90;;;;;;5095618;28;20149;-87
2022/05/06 03:20:44;;;;;;;619.10;74.43;;;7.90;99.90;;;;;;5105540;28;20056;-87
2022/05/06 03:23:14;;;;;;;442.73;62.65;;;7.90;99.90;;;;;;5116128;27;20041;-87
2022/05/06 03:25:40;;;;;;;537.70;67.47;;;8.00;99.90;;;;;;5094656;28;20044;-87
2022/05/06 03:28:09;;;;;;;232.00;47.10;;;8.00;99.90;;;;;;5076537;28;20040;-87
2022/05/06 03:30:44;;;;;;;800.45;86.40;;;8.10;99.90;;;;;;5094045;28;20105;-87
2022/05/06 03:33:12;;;;;;;550.13;60.28;;;8.10;99.90;;;;;;5095509;28;20421;-87
2022/05/06 03:35:39;;;;;;;435.35;60.22;;;8.10;99.90;;;;;;5105199;28;20043;-87
2022/05/06 03:38:06;;;;;;;259.30;51.97;;;8.10;99.90;;;;;;5115094;28;20114;-87
2022/05/06 03:40:35;;;;;;;431.52;59.83;;;8.20;99.90;;;;;;5096600;28;20055;-87
2022/05/06 03:43:01;;;;;;;206.43;50.78;;;8.20;99.90;;;;;;5093468;28;20368;-87
2022/05/06 03:45:27;;;;;;;499.25;66.95;;;8.30;99.90;;;;;;5095342;28;20040;-87
2022/05/06 03:47:54;;;;;;;302.60;56.45;;;8.30;99.90;;;;;;5095008;28;20669;-87
2022/05/06 03:53:06;;;;;;;130.45;48.75;;;8.40;99.90;;;;;;5113901;28;20056;-87
2022/05/06 03:55:32;;;;;;;105.32;40.90;;;8.40;99.90;;;;;;5110996;28;20122;-87
2022/05/06 03:57:58;;;;;;;164.30;44.97;;;8.50;99.90;;;;;;5114191;28;20058;-87
2022/05/06 04:00:26;;;;;;;144.07;45.00;;;8.50;99.90;;;;;;5113867;28;20035;-87
2022/05/06 04:02:52;;;;;;;178.23;49.10;;;8.60;99.90;;;;;;5114506;28;20402;-87
2022/05/06 04:05:18;;;;;;;188.40;44.83;;;8.60;99.90;;;;;;5112923;27;20036;-87
2022/05/06 04:07:44;;;;;;;190.80;40.85;;;8.70;99.90;;;;;;5094804;28;20549;-87
2022/05/06 04:10:10;;;;;;;387.08;56.13;;;8.70;99.90;;;;;;5104408;28;20077;-87
2022/05/06 04:12:36;;;;;;;746.45;90.63;;;8.80;99.90;;;;;;5114975;28;20040;-87
2022/05/06 04:15:03;;;;;;;790.42;96.45;;;8.80;99.90;;;;;;5101030;27;20036;-87
2022/05/06 04:17:29;;;;;;;107.15;41.00;;;8.90;99.90;;;;;;5075801;28;20059;-87
2022/05/06 04:25:23;;;;;;;190.75;36.42;;;9.00;99.90;;;;;;5106028;28;20048;-87
2022/05/06 04:27:49;;;;;;;176.50;37.45;;;9.00;99.90;;;;;;5114711;28;20044;-88
2022/05/06 04:30:15;;;;;;;149.98;35.97;;;9.00;99.90;;;;;;5100461;28;20032;-87
2022/05/06 04:32:41;;;;;;;110.68;32.08;;;9.10;99.90;;;;;;5093534;28;20051;-87
2022/05/06 04:35:08;;;;;;;112.25;32.15;;;9.10;99.90;;;;;;5092536;28;20048;-87
2022/05/06 04:37:34;;;;;;;344.85;49.67;;;9.10;99.90;;;;;;5087066;28;20040;-87
2022/05/06 04:40:00;;;;;;;355.55;46.25;;;9.20;99.90;;;;;;5105831;28;20368;-88
2022/05/06 04:42:26;;;;;;;589.60;66.05;;;9.20;99.90;;;;;;5111904;28;20038;-87
2022/05/06 04:44:52;;;;;;;517.75;62.20;;;9.20;99.90;;;;;;5092077;28;20044;-86
2022/05/06 04:47:18;;;;;;;415.75;58.30;;;9.20;99.90;;;;;;5093876;28;20082;-86
2022/05/06 04:49:43;;;;;;;215.10;38.13;;;9.30;99.90;;;;;;5094004;28;20114;-87
2022/05/06 04:52:09;;;;;;;89.43;33.70;;;9.30;99.90;;;;;;5092870;28;20040;-86
2022/05/06 04:54:35;;;;;;;437.98;54.67;;;9.30;99.90;;;;;;5104557;28;20052;-87
2022/05/06 04:57:01;;;;;;;237.80;40.42;;;9.30;99.90;;;;;;5098323;28;20411;-87
2022/05/06 04:59:27;;;;;;;210.27;39.08;;;9.40;99.90;;;;;;5093259;28;20075;-87
2022/05/06 05:01:53;;;;;;;327.23;44.95;;;9.40;99.90;;;;;;5093912;28;20472;-88
2022/05/06 05:04:18;;;;;;;483.08;56.47;;;9.40;99.90;;;;;;5093810;28;20040;-87
2022/05/06 05:06:45;;;;;;;73.85;34.30;;;9.40;99.90;;;;;;5074700;28;20047;-85
2022/05/06 05:09:11;;;;;;;372.42;53.63;;;9.50;99.90;;;;;;5109957;28;20050;-85
2022/05/06 05:11:37;;;;;;;443.95;57.20;;;9.60;99.90;;;;;;5112948;28;20047;-86
2022/05/06 05:14:06;;;;;;;488.10;60.28;;;9.60;99.90;;;;;;5109485;28;20132;-86
2022/05/06 05:16:33;;;;;;;267.73;49.95;;;9.70;99.90;;;;;;5113823;28;20043;-86
2022/05/06 05:18:59;;;;;;;170.85;44.70;;;9.70;99.90;;;;;;5113946;28;20051;-85
2022/05/06 05:21:25;;;;;;;133.27;40.60;;;9.80;99.90;;;;;;5111953;28;20044;-86
2022/05/06 05:23:50;;;;;;;154.40;42.78;;;9.80;99.90;;;;;;5113800;28;20092;-86
2022/05/06 05:26:16;;;;;;;458.95;59.60;;;9.90;99.90;;;;;;5095560;28;20126;-86
2022/05/06 05:28:42;;;;;;;666.92;75.10;;;9.90;99.90;;;;;;5118234;28;20035;-86
2022/05/06 05:31:08;;;;;;;232.95;50.95;;;10.00;99.90;;;;;;5133546;27;20096;-86
2022/05/06 05:33:34;;;;;;;385.38;58.42;;;10.10;99.90;;;;;;5117362;28;20546;-86
2022/05/06 05:35:59;;;;;;;128.30;44.90;;;10.10;99.90;;;;;;5095183;28;20043;-86
2022/05/06 05:38:25;;;;;;;224.48;49.38;;;10.20;99.90;;;;;;5113113;28;20538;-86
2022/05/06 05:40:51;;;;;;;326.23;54.10;;;10.20;99.90;;;;;;5112477;28;20086;-86
2022/05/06 05:48:45;;;;;;;186.03;46.97;;;10.40;99.90;;;;;;5133374;27;20050;-86
2022/05/06 05:51:11;;;;;;;275.20;50.38;;;10.50;99.90;;;;;;5129390;28;20040;-86
2022/05/06 05:53:38;;;;;;;300.08;48.58;;;10.50;99.90;;;;;;5113498;28;20075;-86
2022/05/06 05:56:04;;;;;;;223.60;41.45;;;10.50;99.90;;;;;;5111675;28;20399;-86
2022/05/06 05:58:31;;;;;;;259.92;48.47;;;10.50;99.90;;;;;;5113718;28;20047;-87
2022/05/06 06:00:57;;;;;;;141.05;37.88;;;10.50;99.90;;;;;;5114022;28;20043;-87
2022/05/06 06:03:23;;;;;;;252.25;46.90;;;10.60;99.90;;;;;;5116089;27;20122;-86
2022/05/06 06:05:49;;;;;;;179.13;43.63;;;10.60;99.90;;;;;;5099679;28;20083;-86
2022/05/06 06:08:15;;;;;;;160.27;40.08;;;10.70;99.90;;;;;;5117206;28;20567;-86
2022/05/06 06:10:40;;;;;;;138.10;39.65;;;10.70;99.90;;;;;;5114869;28;20126;-87
2022/05/06 06:13:06;;;;;;;258.45;46.15;;;10.70;99.90;;;;;;5116066;28;20050;-87
2022/05/06 06:15:32;;;;;;;167.63;40.83;;;10.80;99.90;;;;;;5117368;28;20040;-87
2022/05/06 06:17:58;;;;;;;111.80;38.58;;;10.80;99.90;;;;;;5116380;28;20451;-87
2022/05/06 06:20:24;;;;;;;125.47;38.47;;;10.80;99.90;;;;;;5128216;27;20123;-87
2022/05/06 06:22:50;;;;;;;192.05;42.75;;;10.90;99.90;;;;;;5136915;27;20079;-87
2022/05/06 06:25:16;;;;;;;100.15;32.65;;;10.90;99.90;;;;;;5124187;27;20078;-85
2022/05/06 06:27:43;;;;;;;62.55;28.73;;;11.00;99.90;;;;;;5098796;28;20503;-86
2022/05/06 06:30:10;;;;;;;92.78;31.33;;;11.00;99.90;;;;;;5117142;27;20109;-86
2022/05/06 06:32:36;;;;;;;64.63;27.40;;;11.10;99.90;;;;;;5114915;28;20056;-86
2022/05/06 06:35:03;;;;;;;54.70;24.63;;;11.20;99.90;;;;;;5115639;28;20044;-88
2022/05/06 06:37:31;;;;;;;76.25;24.63;;;11.20;99.90;;;;;;5116562;27;20055;-87
2022/05/06 06:39:57;;;;;;;39.30;19.08;;;11.20;99.90;;;;;;5115668;28;20058;-89
2022/05/06 06:42:23;;;;;;;41.88;18.63;;;11.20;99.90;;;;;;5115683;28;20047;-87
2022/05/06 06:44:49;;;;;;;31.60;16.88;;;11.10;99.90;;;;;;5113007;28;20040;-88
2022/05/06 06:47:15;;;;;;;43.85;20.67;;;11.10;99.90;;;;;;5115529;28;20104;-87
2022/05/06 06:49:41;;;;;;;35.33;18.45;;;11.20;99.90;;;;;;5077106;28;20040;-87
2022/05/06 06:52:07;;;;;;;31.65;18.48;;;11.20;99.90;;;;;;5097319;28;20047;-87
2022/05/06 06:54:33;;;;;;;33.42;16.88;;;11.20;99.90;;;;;;5105571;28;20056;-90
2022/05/06 06:56:59;;;;;;;30.10;17.70;;;11.30;99.90;;;;;;5100276;28;20051;-89
2022/05/06 06:59:25;;;;;;;39.25;18.73;;;11.30;99.90;;;;;;5115414;28;20051;-88
2022/05/06 07:01:51;;;;;;;33.83;17.70;;;11.40;99.90;;;;;;5114036;28;20368;-90
2022/05/06 07:04:17;;;;;;;16.80;12.07;;;11.50;99.90;;;;;;5115635;28;20050;-90
2022/05/06 07:12:11;;;;;;;20.77;13.53;;;11.50;99.90;;;;;;5096570;28;20052;-88
2022/05/06 07:14:37;;;;;;;17.45;13.15;;;11.60;99.90;;;;;;5110977;28;20051;-88
2022/05/06 07:17:05;;;;;;;18.25;13.43;;;11.70;99.90;;;;;;5115018;28;20388;-88
2022/05/06 07:19:33;;;;;;;18.27;12.77;;;11.80;99.90;;;;;;5114079;28;20553;-89
2022/05/06 07:21:59;;;;;;;15.85;12.13;;;11.80;99.90;;;;;;5109461;28;20063;-88
2022/05/06 07:24:25;;;;;;;15.85;11.27;;;11.90;99.90;;;;;;5094354;28;20040;-89
2022/05/06 07:26:53;;;;;;;12.93;10.13;;;11.90;99.90;;;;;;5095408;28;20494;-90
2022/05/06 07:29:19;;;;;;;12.48;9.50;;;12.00;99.90;;;;;;5110843;28;20077;-90
2022/05/06 07:31:46;;;;;;;10.93;8.45;;;12.00;99.90;;;;;;5099197;28;20047;-88
2022/05/06 07:34:12;;;;;;;13.68;8.88;;;12.10;99.90;;;;;;5094718;28;20048;-91
2022/05/06 07:36:42;;;;;;;11.75;8.80;;;12.10;99.90;;;;;;5094859;28;20036;-92
2022/05/06 07:39:09;;;;;;;13.60;8.75;;;12.20;99.90;;;;;;5095296;28;20048;-91
2022/05/06 07:41:35;;;;;;;10.80;8.95;;;12.20;99.90;;;;;;5093972;28;20127;-89
2022/05/06 07:44:01;;;;;;;11.85;9.15;;;12.20;99.90;;;;;;5111570;28;20123;-91
2022/05/06 07:46:27;;;;;;;10.43;8.38;;;12.30;99.90;;;;;;5085247;28;20123;-89
2022/05/06 07:48:52;;;;;;;10.02;8.95;;;12.40;99.90;;;;;;5093053;28;20051;-89
2022/05/06 07:51:18;;;;;;;10.88;9.10;;;12.50;99.90;;;;;;5080957;28;20036;-89
2022/05/06 07:53:44;;;;;;;9.90;8.90;;;12.60;99.90;;;;;;5093566;28;20083;-89
2022/05/06 07:56:11;;;;;;;15.75;9.32;;;12.70;99.90;;;;;;5101863;28;20043;-90
2022/05/06 07:58:40;;;;;;;13.15;9.27;;;12.70;99.90;;;;;;5113550;28;20052;-90
2022/05/06 08:01:06;;;;;;;10.25;8.30;;;12.80;99.90;;;;;;5106980;28;20075;-90
2022/05/06 08:06:17;;;;;;;8.60;7.70;;;13.10;99.90;;;;;;5107231;28;20384;-90
2022/05/06 08:08:43;;;;;;;9.15;8.25;;;13.20;99.90;;;;;;5093037;28;20395;-87
2022/05/06 08:11:10;;;;;;;8.52;7.70;;;13.30;99.90;;;;;;5097886;28;20052;-94
2022/05/06 08:13:35;;;;;;;7.40;6.75;;;13.30;99.90;;;;;;5097980;28;20048;-88
2022/05/06 08:16:01;;;;;;;8.35;7.53;;;13.40;99.90;;;;;;5094398;28;20411;-89
2022/05/06 08:18:28;;;;;;;7.93;7.22;;;13.60;99.90;;;;;;5109438;28;20040;-90
2022/05/06 08:20:54;;;;;;;7.85;7.05;;;13.80;99.90;;;;;;5096817;28;20046;-88
2022/05/06 08:23:24;;;;;;;9.73;7.22;;;13.90;99.90;;;;;;5112774;28;20043;-89
2022/05/06 08:25:51;;;;;;;7.93;7.22;;;14.00;99.90;;;;;;5113146;28;20039;-91
2022/05/06 08:28:19;;;;;;;8.30;7.50;;;14.20;99.90;;;;;;5113022;28;20050;-89
2022/05/06 08:30:46;;;;;;;8.68;7.85;;;14.30;99.90;;;;;;5113627;28;20403;-89
2022/05/06 08:33:15;;;;;;;9.10;8.23;;;14.30;99.90;;;;;;5111411;28;20047;-90
2022/05/06 08:35:44;;;;;;;9.77;8.48;;;14.40;99.90;;;;;;5118597;27;20486;-89
2022/05/06 08:38:11;;;;;;;8.38;7.65;;;14.40;99.90;;;;;;5125970;27;20272;-90
2022/05/06 08:40:37;;;;;;;9.32;7.60;;;14.50;99.90;;;;;;5114233;28;20118;-89
2022/05/06 08:43:04;;;;;;;7.13;6.53;;;14.50;99.90;;;;;;5085560;28;20479;-89
2022/05/06 08:51:02;;;;;;;6.75;6.15;;;14.80;99.90;;;;;;5108775;28;20514;-90
2022/05/06 08:53:33;;;;;;;6.93;5.93;;;14.90;99.90;;;;;;5095639;28;20497;-89
2022/05/06 08:56:02;;;;;;;6.90;6.30;;;15.00;99.90;;;;;;5102805;28;20052;-89
2022/05/06 08:58:31;;;;;;;6.80;6.10;;;15.00;99.90;;;;;;5091955;28;20105;-89
2022/05/06 09:01:12;;;;;;;9.23;6.18;;;15.10;99.90;;;;;;5094293;28;21201;-87
2022/05/06 09:03:39;;;;;;;6.10;5.50;;;15.10;99.90;;;;;;5094319;28;20055;-89
2022/05/06 09:06:15;;;;;;;6.75;6.07;;;15.10;99.90;;;;;;5092854;28;20046;-90
2022/05/06 09:08:43;;;;;;;6.38;5.78;;;15.20;99.90;;;;;;5079863;28;20174;-89
2022/05/06 09:11:09;;;;;;;8.25;6.43;;;15.20;99.90;;;;;;5092211;28;20131;-89
2022/05/06 09:13:36;;;;;;;6.43;5.85;;;15.20;99.90;;;;;;5104565;28;20166;-89
2022/05/06 09:19:21;;;;;;;6.03;5.53;;;15.30;99.90;;;;;;5102739;28;20044;-89
2022/05/06 09:22:11;;;;;;;9.40;6.05;;;15.40;99.90;;;;;;5112580;28;20048;-88
2022/05/06 09:24:38;;;;;;;6.70;6.10;;;15.50;99.90;;;;;;5075530;28;20047;-89
2022/05/06 09:27:13;;;;;;;7.25;6.10;;;15.50;99.90;;;;;;5091583;28;20479;-90
2022/05/06 09:29:47;;;;;;;6.28;5.68;;;15.70;99.90;;;;;;5104049;28;20059;-89
2022/05/06 09:32:16;;;;;;;7.75;5.85;;;15.80;99.90;;;;;;5093999;28;20048;-87
2022/05/06 09:34:43;;;;;;;6.18;5.45;;;15.90;99.90;;;;;;5092687;28;20052;-87
2022/05/06 09:37:09;;;;;;;6.35;5.75;;;15.90;99.90;;;;;;5095329;28;20054;-89
2022/05/06 09:39:38;;;;;;;5.95;5.35;;;16.00;99.90;;;;;;5106364;28;20047;-91
2022/05/06 09:42:06;;;;;;;7.00;6.32;;;16.00;99.90;;;;;;5112087;28;20059;-90
2022/05/06 09:44:35;;;;;;;10.18;5.88;;;16.20;99.90;;;;;;5109648;28;20108;-88
2022/05/06 09:47:11;;;;;;;8.32;4.50;;;16.40;99.90;;;;;;5113001;27;20052;-90
2022/05/06 09:49:40;;;;;;;6.50;4.85;;;16.50;99.90;;;;;;5113448;28;20035;-91
2022/05/06 09:52:13;;;;;;;6.18;5.57;;;16.60;99.90;;;;;;5112383;28;20391;-89
2022/05/06 09:54:41;;;;;;;5.90;5.40;;;16.70;99.90;;;;;;5096532;28;20543;-88
2022/05/06 09:57:09;;;;;;;7.68;5.50;;;16.70;99.90;;;;;;5101323;28;20482;-89
2022/05/06 09:59:36;;;;;;;6.10;5.60;;;16.60;99.90;;;;;;5115774;27;20406;-90
2022/05/06 10:02:04;;;;;;;4.85;3.92;;;16.70;99.90;;;;;;5095367;28;20052;-91
2022/05/06 10:04:30;;;;;;;4.57;4.18;;;16.80;99.90;;;;;;5097956;28;20046;-84
2022/05/06 10:06:59;;;;;;;4.80;3.40;;;17.00;99.90;;;;;;5097127;28;20044;-84
2022/05/06 10:09:26;;;;;;;4.00;3.15;;;17.10;99.90;;;;;;5096918;28;20491;-87
2022/05/06 10:11:54;;;;;;;5.55;3.13;;;17.20;99.90;;;;;;5095685;28;20083;-86
2022/05/06 10:14:20;;;;;;;3.63;2.80;;;17.30;99.90;;;;;;5107901;28;20130;-87
2022/05/06 10:16:48;;;;;;;4.28;2.70;;;17.50;99.90;;;;;;5099205;28;20047;-86
2022/05/06 10:19:45;;;;;;;7.50;2.60;;;17.70;99.90;;;;;;5107692;28;20050;-83
2022/05/06 10:22:10;;;;;;;3.28;2.53;;;17.90;99.90;;;;;;5115768;28;20071;-86
2022/05/06 10:24:49;;;;;;;2.97;2.65;;;17.80;99.90;;;;;;5109062;28;20094;-88
2022/05/06 10:33:14;;;;;;;3.55;2.97;;;18.40;99.90;;;;;;5116922;28;20496;-87
2022/05/06 10:35:42;;;;;;;10.45;3.33;;;18.60;99.90;;;;;;5097558;28;20393;-86
2022/05/06 10:38:17;;;;;;;3.25;2.92;;;18.80;99.90;;;;;;5094511;28;20036;-89
2022/05/06 10:40:53;;;;;;;3.03;2.75;;;19.00;99.90;;;;;;5115036;28;20097;-84
2022/05/06 10:43:46;;;;;;;2.63;2.42;;;19.20;99.90;;;;;;5117055;28;20051;-90
2022/05/06 10:46:33;;;;;;;2.97;2.72;;;19.20;99.90;;;;;;5098687;28;20119;-83
2022/05/06 10:49:46;;;;;;;4.00;2.25;;;19.20;99.90;;;;;;5097322;28;20036;-84
2022/05/06 10:52:18;;;;;;;8.13;1.88;;;19.10;99.90;;;;;;5085954;28;20144;-86
2022/05/06 10:54:47;;;;;;;4.28;2.42;;;19.00;99.90;;;;;;5096502;28;20051;-84
2022/05/06 10:57:14;;;;;;;3.85;1.92;;;18.80;99.90;;;;;;5096311;28;20048;-84
2022/05/06 11:00:02;;;;;;;2.40;2.03;;;18.80;99.90;;;;;;5095794;28;20144;-86
2022/05/06 11:02:33;;;;;;;8.48;4.95;;;18.80;99.90;;;;;;5094880;28;20403;-86
2022/05/06 11:04:59;;;;;;;2.83;2.08;;;18.80;99.90;;;;;;5095725;28;20051;-84
2022/05/06 11:07:25;;;;;;;2.78;2.00;;;18.80;99.90;;;;;;5096037;28;20044;-85
2022/05/06 11:09:51;;;;;;;2.80;1.63;;;18.70;99.90;;;;;;5109398;28;20043;-86
2022/05/06 11:12:40;;;;;;;6.47;2.00;;;18.80;99.90;;;;;;5106547;28;20048;-85
2022/05/06 11:15:14;;;;;;;2.33;1.92;;;18.80;99.90;;;;;;5095947;28;20101;-86
2022/05/06 11:17:42;;;;;;;3.63;2.35;;;18.80;99.90;;;;;;5096717;28;20387;-87
2022/05/06 11:20:31;;;;;;;3.17;2.20;;;18.90;99.90;;;;;;5112751;28;20079;-85
2022/05/06 11:22:59;;;;;;;3.60;2.15;;;19.10;99.90;;;;;;5097563;28;20055;-84
2022/05/06 11:25:28;;;;;;;2.75;1.90;;;19.20;99.90;;;;;;5096029;28;20043;-85
2022/05/06 11:27:56;;;;;;;4.40;2.20;;;19.30;99.90;;;;;;5094337;28;20043;-86
2022/05/06 11:30:24;;;;;;;3.45;2.58;;;19.50;99.90;;;;;;5114335;28;20045;-85
2022/05/06 11:32:55;;;;;;;3.10;2.70;;;19.50;99.90;;;;;;5115140;28;20043;-83
2022/05/06 11:35:27;;;;;;;4.60;2.72;;;19.50;99.90;;;;;;5095308;28;20131;-86
2022/05/06 11:37:53;;;;;;;7.10;3.40;;;19.40;99.90;;;;;;5095132;28;20040;-87
2022/05/06 11:40:34;;;;;;;5.55;3.20;;;19.50;99.90;;;;;;5093663;28;20051;-85
2022/05/06 11:43:01;;;;;;;4.03;3.50;;;19.60;99.90;;;;;;5111567;28;20047;-83
2022/05/06 11:48:14;;;;;;;5.40;3.33;;;19.50;99.90;;;;;;5093275;28;20047;-84
2022/05/06 11:50:40;;;;;;;5.88;3.00;;;19.30;99.90;;;;;;5095250;28;20156;-84
2022/05/06 11:53:10;;;;;;;5.97;3.03;;;19.20;99.90;;;;;;5111323;28;20085;-83
2022/05/06 11:55:38;;;;;;;4.28;3.15;;;19.30;99.90;;;;;;5111393;28;20498;-82
2022/05/06 11:58:09;;;;;;;4.68;3.38;;;19.40;99.90;;;;;;5113749;28;20075;-83
2022/05/06 12:00:35;;;;;;;4.57;3.83;;;19.40;99.90;;;;;;5101838;28;20043;-84
2022/05/06 12:03:06;;;;;;;5.13;3.63;;;19.30;99.90;;;;;;5093168;28;20046;-85
2022/05/06 12:05:38;;;;;;;4.60;4.20;;;19.30;99.90;;;;;;5094377;28;20071;-84
2022/05/06 12:08:05;;;;;;;5.78;4.53;;;19.30;99.90;;;;;;5094152;28;20447;-85
2022/05/06 12:10:36;;;;;;;4.40;4.00;;;19.20;99.90;;;;;;5095547;28;20054;-84
2022/05/06 12:13:05;;;;;;;7.75;3.50;;;19.20;99.90;;;;;;5094812;28;20044;-85
2022/05/06 12:15:35;;;;;;;19.48;3.78;;;19.10;99.90;;;;;;5093223;28;20410;-84
2022/05/06 12:18:03;;;;;;;10.30;3.22;;;19.30;99.90;;;;;;5093801;28;20058;-87
2022/05/06 12:20:30;;;;;;;49.10;4.85;;;19.50;99.90;;;;;;5094930;28;20055;-85
2022/05/06 12:22:59;;;;;;;24.67;3.75;;;19.60;99.90;;;;;;5092476;28;20044;-85
2022/05/06 12:25:26;;;;;;;4.32;3.03;;;19.80;99.90;;;;;;5101252;28;20048;-83
2022/05/06 12:28:06;;;;;;;6.47;2.47;;;19.90;99.90;;;;;;5113835;28;20094;-86
2022/05/06 12:30:33;;;;;;;8.00;3.63;;;20.00;99.90;;;;;;5099431;28;20048;-84
2022/05/06 12:33:07;;;;;;;4.78;2.78;;;19.90;99.90;;;;;;5094235;28;20483;-86
2022/05/06 12:35:55;;;;;;;6.38;2.78;;;20.00;99.90;;;;;;5094968;28;20094;-87
2022/05/06 12:38:21;;;;;;;3.35;2.55;;;20.00;99.90;;;;;;5109209;28;20044;-86
2022/05/06 12:40:49;;;;;;;4.50;2.72;;;20.20;99.90;;;;;;5093512;28;20052;-85
2022/05/06 12:43:15;;;;;;;3.97;2.70;;;20.40;99.90;;;;;;5093715;28;20047;-85
2022/05/06 12:45:53;;;;;;;8.68;3.25;;;20.50;99.90;;;;;;5093030;28;20036;-85
2022/05/06 12:51:03;;;;;;;4.33;2.73;;;20.40;99.90;;;;;;5109285;28;20043;-87
2022/05/06 12:53:29;;;;;;;6.93;3.40;;;20.30;99.90;;;;;;5096923;28;20638;-85
2022/05/06 12:55:55;;;;;;;4.47;2.63;;;20.30;99.90;;;;;;5076220;28;20454;-86
2022/05/06 12:58:27;;;;;;;5.10;2.33;;;20.40;99.90;;;;;;5093898;28;20127;-85
2022/05/06 13:00:56;;;;;;;4.40;3.13;;;20.50;99.90;;;;;;5093895;28;20047;-86
2022/05/06 13:03:23;;;;;;;6.32;3.60;;;20.70;99.90;;;;;;5093435;28;20055;-86
2022/05/06 13:05:49;;;;;;;3.85;2.92;;;20.80;99.90;;;;;;5093084;28;20510;-86
2022/05/06 13:08:15;;;;;;;10.23;4.28;;;21.00;99.90;;;;;;5105166;28;20043;-84
2022/05/06 13:10:41;;;;;;;9.32;5.22;;;21.20;99.90;;;;;;5113069;28;20043;-83
2022/05/06 13:13:07;;;;;;;9.60;5.55;;;21.10;99.90;;;;;;5101787;28;20051;-84
2022/05/06 13:15:33;;;;;;;5.97;4.97;;;20.80;99.90;;;;;;5075643;28;20055;-85
2022/05/06 13:17:58;;;;;;;8.52;5.10;;;20.70;99.90;;;;;;5093943;28;20119;-84
2022/05/06 13:20:24;;;;;;;10.57;7.07;;;20.60;99.90;;;;;;5092148;28;20058;-83
2022/05/06 13:22:50;;;;;;;12.70;6.72;;;20.50;99.90;;;;;;5094081;28;20039;-87
2022/05/06 13:25:17;;;;;;;11.18;6.05;;;20.30;99.90;;;;;;5091779;28;20395;-86
2022/05/06 13:27:43;;;;;;;9.38;6.03;;;20.10;99.90;;;;;;5092905;28;20070;-83